<?xml version="1.0" encoding="UTF-8" standalone="no" ?>
<gpx xmlns="http://www.topografix.com/GPX/1/1" xmlns:xsi="http://www.w3.org/2001/XMLSchema-instance" xsi:schemaLocation="http://www.topografix.com/GPX/1/1 http://www.topografix.com/GPX/1/1/gpx.xsd" version="1.1" creator="VisuGPX - https://www.visugpx.com">
  <metadata>
    <name>Ferrières les Verreries</name>
    <desc><![CDATA[#fait]]></desc>
  </metadata>
  <wpt lat="43.86371" lon="3.82216">
    <ele>309</ele>
    <name><![CDATA[Parking du Mas Baume, autorisé aux randonneurs]]></name>
  </wpt>
  <wpt lat="43.85816" lon="3.82516">
    <ele>316</ele>
    <name><![CDATA[Anciens fours à chaux]]></name>
  </wpt>
  <wpt lat="43.86558" lon="3.82306">
    <ele>305</ele>
    <name><![CDATA[Suivre le sentier en face en contrebas du mas]]></name>
  </wpt>
  <wpt lat="43.86221" lon="3.81757">
    <ele>299</ele>
    <name><![CDATA[Réservoir]]></name>
  </wpt>
  <wpt lat="43.86228" lon="3.80839">
    <ele>276</ele>
    <name><![CDATA[Ruisseau et Gour de Gorniés]]></name>
  </wpt>
  <wpt lat="43.86281" lon="3.80431">
    <ele>267</ele>
    <name><![CDATA[Moulin ruiné]]></name>
  </wpt>
  <wpt lat="43.86552" lon="3.79023">
    <ele>242</ele>
    <name><![CDATA[Bon sentier parallèle à la draille de Gorniès]]></name>
  </wpt>
  <wpt lat="43.87777" lon="3.80061">
    <ele>316</ele>
    <name><![CDATA[Poursuivre sur la route D107E4]]></name>
  </wpt>
  <wpt lat="43.87445" lon="3.80632">
    <ele>317</ele>
    <name><![CDATA[ Prendre à droite, passer une barrière]]></name>
  </wpt>
  <wpt lat="43.86251" lon="3.80906">
    <ele>275</ele>
    <name><![CDATA[Haut du Gour de Gorniés]]></name>
  </wpt>
  <wpt lat="43.86273" lon="3.81111">
    <ele>277</ele>
    <name><![CDATA[Traverser le ruisseau de Vallongue]]></name>
  </wpt>
  <wpt lat="43.86799" lon="3.82133">
    <ele>299</ele>
    <name><![CDATA[D107E4, la suivre par sa droite]]></name>
  </wpt>
  <wpt lat="43.86372" lon="3.82216">
    <ele>309</ele>
    <name><![CDATA[Parking du Mas Baume]]></name>
  </wpt>
  <trk>
    <name><![CDATA[Ferrières les Verreries]]></name>
    <trkseg>
      <trkpt lat="43.86371" lon="3.82216">
        <ele>309</ele>
        <time>2013-12-15T09:28:32+01:00</time>
      </trkpt>
      <trkpt lat="43.86371" lon="3.82217">
        <ele>309</ele>
        <time>2013-12-15T09:31:10+01:00</time>
      </trkpt>
      <trkpt lat="43.8637" lon="3.82235">
        <ele>309</ele>
        <time>2013-12-15T09:51:21+01:00</time>
      </trkpt>
      <trkpt lat="43.86356" lon="3.82238">
        <ele>310</ele>
        <time>2013-12-15T09:51:33+01:00</time>
      </trkpt>
      <trkpt lat="43.86351" lon="3.82227">
        <ele>310</ele>
        <time>2013-12-15T09:51:44+01:00</time>
      </trkpt>
      <trkpt lat="43.86327" lon="3.82214">
        <ele>311</ele>
        <time>2021-05-09T06:02:54+02:00</time>
      </trkpt>
      <trkpt lat="43.86295" lon="3.82229">
        <ele>311</ele>
        <time>2021-05-09T06:02:59+02:00</time>
      </trkpt>
      <trkpt lat="43.86268" lon="3.82213">
        <ele>310</ele>
        <time>2013-12-15T09:53:35+01:00</time>
      </trkpt>
      <trkpt lat="43.86294" lon="3.82232">
        <ele>311</ele>
        <time>2021-05-09T06:03:09+02:00</time>
      </trkpt>
      <trkpt lat="43.86286" lon="3.8227">
        <ele>311</ele>
        <time>2013-12-15T09:53:43+01:00</time>
      </trkpt>
      <trkpt lat="43.86298" lon="3.82296">
        <ele>311</ele>
        <time>2021-05-09T06:03:19+02:00</time>
      </trkpt>
      <trkpt lat="43.86302" lon="3.82326">
        <ele>311</ele>
        <time>2013-12-15T09:54:27+01:00</time>
      </trkpt>
      <trkpt lat="43.86293" lon="3.82349">
        <ele>311</ele>
        <time>2013-12-15T09:54:58+01:00</time>
      </trkpt>
      <trkpt lat="43.86279" lon="3.82356">
        <ele>311</ele>
        <time>2013-12-15T09:55:06+01:00</time>
      </trkpt>
      <trkpt lat="43.86231" lon="3.82359">
        <ele>312</ele>
        <time>2013-12-15T09:56:04+01:00</time>
      </trkpt>
      <trkpt lat="43.86213" lon="3.82342">
        <ele>312</ele>
        <time>2013-12-15T09:56:19+01:00</time>
      </trkpt>
      <trkpt lat="43.86179" lon="3.8232">
        <ele>313</ele>
        <time>2013-12-15T09:56:51+01:00</time>
      </trkpt>
      <trkpt lat="43.86165" lon="3.82302">
        <ele>313</ele>
        <time>2013-12-15T09:57:08+01:00</time>
      </trkpt>
      <trkpt lat="43.86156" lon="3.82279">
        <ele>313</ele>
        <time>2013-12-15T09:57:30+01:00</time>
      </trkpt>
      <trkpt lat="43.86092" lon="3.82184">
        <ele>315</ele>
        <time>2013-12-15T09:58:47+01:00</time>
      </trkpt>
      <trkpt lat="43.86076" lon="3.8216">
        <ele>315</ele>
        <time>2013-12-15T09:59:11+01:00</time>
      </trkpt>
      <trkpt lat="43.86065" lon="3.82127">
        <ele>316</ele>
        <time>2013-12-15T09:59:21+01:00</time>
      </trkpt>
      <trkpt lat="43.86053" lon="3.82119">
        <ele>316</ele>
        <time>2013-12-15T09:59:35+01:00</time>
      </trkpt>
      <trkpt lat="43.85993" lon="3.82123">
        <ele>318</ele>
        <time>2013-12-15T10:00:25+01:00</time>
      </trkpt>
      <trkpt lat="43.85979" lon="3.8211">
        <ele>318</ele>
        <time>2013-12-15T10:00:42+01:00</time>
      </trkpt>
      <trkpt lat="43.85937" lon="3.82095">
        <ele>320</ele>
        <time>2013-12-15T10:01:13+01:00</time>
      </trkpt>
      <trkpt lat="43.8588" lon="3.82138">
        <ele>318</ele>
        <time>2013-12-15T10:02:26+01:00</time>
      </trkpt>
      <trkpt lat="43.85854" lon="3.82165">
        <ele>317</ele>
        <time>2013-12-15T10:02:42+01:00</time>
      </trkpt>
      <trkpt lat="43.85783" lon="3.82204">
        <ele>314</ele>
        <time>2013-12-15T10:03:56+01:00</time>
      </trkpt>
      <trkpt lat="43.85763" lon="3.82175">
        <ele>314</ele>
        <time>2013-12-15T10:04:24+01:00</time>
      </trkpt>
      <trkpt lat="43.85744" lon="3.82172">
        <ele>313</ele>
        <time>2013-12-15T10:04:46+01:00</time>
      </trkpt>
      <trkpt lat="43.85736" lon="3.82177">
        <ele>313</ele>
        <time>2013-12-15T10:05:07+01:00</time>
      </trkpt>
      <trkpt lat="43.85726" lon="3.82175">
        <ele>312</ele>
        <time>2013-12-15T10:05:37+01:00</time>
      </trkpt>
      <trkpt lat="43.85736" lon="3.82182">
        <ele>312</ele>
        <time>2013-12-15T10:08:01+01:00</time>
      </trkpt>
      <trkpt lat="43.85737" lon="3.82196">
        <ele>312</ele>
        <time>2013-12-15T10:08:11+01:00</time>
      </trkpt>
      <trkpt lat="43.85756" lon="3.82217">
        <ele>312</ele>
        <time>2013-12-15T10:08:28+01:00</time>
      </trkpt>
      <trkpt lat="43.8576" lon="3.82232">
        <ele>311</ele>
        <time>2013-12-15T10:08:37+01:00</time>
      </trkpt>
      <trkpt lat="43.85738" lon="3.82274">
        <ele>309</ele>
        <time>2013-12-15T10:09:11+01:00</time>
      </trkpt>
      <trkpt lat="43.8574" lon="3.82288">
        <ele>309</ele>
        <time>2013-12-15T10:09:19+01:00</time>
      </trkpt>
      <trkpt lat="43.85766" lon="3.82326">
        <ele>310</ele>
        <time>2013-12-15T10:10:01+01:00</time>
      </trkpt>
      <trkpt lat="43.85783" lon="3.82363">
        <ele>311</ele>
        <time>2013-12-15T10:10:34+01:00</time>
      </trkpt>
      <trkpt lat="43.85783" lon="3.82387">
        <ele>311</ele>
        <time>2013-12-15T10:10:42+01:00</time>
      </trkpt>
      <trkpt lat="43.85799" lon="3.82414">
        <ele>312</ele>
        <time>2013-12-15T10:11:23+01:00</time>
      </trkpt>
      <trkpt lat="43.858" lon="3.82448">
        <ele>314</ele>
        <time>2021-05-09T06:06:04+02:00</time>
      </trkpt>
      <trkpt lat="43.85816" lon="3.82516">
        <ele>316</ele>
        <time>2013-12-15T10:12:54+01:00</time>
      </trkpt>
      <trkpt lat="43.85812" lon="3.82564">
        <ele>316</ele>
        <time>2013-12-15T10:17:38+01:00</time>
      </trkpt>
      <trkpt lat="43.85821" lon="3.82591">
        <ele>316</ele>
        <time>2013-12-15T10:18:04+01:00</time>
      </trkpt>
      <trkpt lat="43.85821" lon="3.82636">
        <ele>314</ele>
        <time>2013-12-15T10:18:33+01:00</time>
      </trkpt>
      <trkpt lat="43.85815" lon="3.82658">
        <ele>312</ele>
        <time>2013-12-15T10:18:52+01:00</time>
      </trkpt>
      <trkpt lat="43.85827" lon="3.82694">
        <ele>310</ele>
        <time>2013-12-15T10:19:22+01:00</time>
      </trkpt>
      <trkpt lat="43.8583" lon="3.8272">
        <ele>308</ele>
        <time>2013-12-15T10:19:42+01:00</time>
      </trkpt>
      <trkpt lat="43.85836" lon="3.82743">
        <ele>306</ele>
        <time>2013-12-15T10:20:01+01:00</time>
      </trkpt>
      <trkpt lat="43.85852" lon="3.82758">
        <ele>306</ele>
        <time>2013-12-15T10:20:47+01:00</time>
      </trkpt>
      <trkpt lat="43.85851" lon="3.82757">
        <ele>306</ele>
        <time>2013-12-15T10:21:56+01:00</time>
      </trkpt>
      <trkpt lat="43.8586" lon="3.82748">
        <ele>306</ele>
        <time>2013-12-15T10:22:14+01:00</time>
      </trkpt>
      <trkpt lat="43.85888" lon="3.82764">
        <ele>306</ele>
        <time>2013-12-15T10:22:48+01:00</time>
      </trkpt>
      <trkpt lat="43.85896" lon="3.82792">
        <ele>306</ele>
        <time>2013-12-15T10:28:56+01:00</time>
      </trkpt>
      <trkpt lat="43.85894" lon="3.82803">
        <ele>306</ele>
        <time>2021-05-09T06:07:14+02:00</time>
      </trkpt>
      <trkpt lat="43.85897" lon="3.82829">
        <ele>307</ele>
        <time>2013-12-15T10:29:48+01:00</time>
      </trkpt>
      <trkpt lat="43.85933" lon="3.82838">
        <ele>309</ele>
        <time>2013-12-15T10:30:45+01:00</time>
      </trkpt>
      <trkpt lat="43.85965" lon="3.82813">
        <ele>312</ele>
        <time>2013-12-15T10:31:53+01:00</time>
      </trkpt>
      <trkpt lat="43.86002" lon="3.82816">
        <ele>315</ele>
        <time>2013-12-15T10:32:57+01:00</time>
      </trkpt>
      <trkpt lat="43.86019" lon="3.82807">
        <ele>315</ele>
        <time>2013-12-15T10:33:25+01:00</time>
      </trkpt>
      <trkpt lat="43.8603" lon="3.82796">
        <ele>315</ele>
        <time>2013-12-15T10:33:42+01:00</time>
      </trkpt>
      <trkpt lat="43.86048" lon="3.82793">
        <ele>315</ele>
        <time>2013-12-15T10:34:29+01:00</time>
      </trkpt>
      <trkpt lat="43.86078" lon="3.82765">
        <ele>316</ele>
        <time>2013-12-15T10:35:07+01:00</time>
      </trkpt>
      <trkpt lat="43.86108" lon="3.82767">
        <ele>316</ele>
        <time>2013-12-15T10:35:54+01:00</time>
      </trkpt>
      <trkpt lat="43.86135" lon="3.82791">
        <ele>315</ele>
        <time>2013-12-15T10:36:26+01:00</time>
      </trkpt>
      <trkpt lat="43.86173" lon="3.82798">
        <ele>314</ele>
        <time>2013-12-15T10:37:00+01:00</time>
      </trkpt>
      <trkpt lat="43.86208" lon="3.82779">
        <ele>315</ele>
        <time>2013-12-15T10:37:43+01:00</time>
      </trkpt>
      <trkpt lat="43.86244" lon="3.82793">
        <ele>315</ele>
        <time>2013-12-15T10:38:36+01:00</time>
      </trkpt>
      <trkpt lat="43.86271" lon="3.82785">
        <ele>315</ele>
        <time>2013-12-15T10:39:08+01:00</time>
      </trkpt>
      <trkpt lat="43.86302" lon="3.82794">
        <ele>314</ele>
        <time>2013-12-15T10:39:35+01:00</time>
      </trkpt>
      <trkpt lat="43.86352" lon="3.82738">
        <ele>313</ele>
        <time>2013-12-15T10:40:36+01:00</time>
      </trkpt>
      <trkpt lat="43.86328" lon="3.82648">
        <ele>311</ele>
        <time>2021-05-09T06:08:39+02:00</time>
      </trkpt>
      <trkpt lat="43.86306" lon="3.82522">
        <ele>312</ele>
        <time>2013-12-15T10:43:01+01:00</time>
      </trkpt>
      <trkpt lat="43.86321" lon="3.82512">
        <ele>312</ele>
        <time>2013-12-15T10:43:19+01:00</time>
      </trkpt>
      <trkpt lat="43.86339" lon="3.82483">
        <ele>312</ele>
        <time>2013-12-15T10:43:28+01:00</time>
      </trkpt>
      <trkpt lat="43.86409" lon="3.82447">
        <ele>311</ele>
        <time>2013-12-15T10:44:45+01:00</time>
      </trkpt>
      <trkpt lat="43.8643" lon="3.82438">
        <ele>310</ele>
        <time>2021-05-09T06:09:04+02:00</time>
      </trkpt>
      <trkpt lat="43.86455" lon="3.82415">
        <ele>309</ele>
        <time>2013-12-15T10:45:41+01:00</time>
      </trkpt>
      <trkpt lat="43.86485" lon="3.82424">
        <ele>309</ele>
        <time>2013-12-15T10:46:10+01:00</time>
      </trkpt>
      <trkpt lat="43.86507" lon="3.82417">
        <ele>309</ele>
        <time>2013-12-15T10:46:44+01:00</time>
      </trkpt>
      <trkpt lat="43.86523" lon="3.82373">
        <ele>307</ele>
        <time>2013-12-15T10:47:26+01:00</time>
      </trkpt>
      <trkpt lat="43.86551" lon="3.8233">
        <ele>305</ele>
        <time>2021-05-09T06:09:29+02:00</time>
      </trkpt>
      <trkpt lat="43.86558" lon="3.82306">
        <ele>305</ele>
        <time>2013-12-15T10:48:18+01:00</time>
      </trkpt>
      <trkpt lat="43.86561" lon="3.82281">
        <ele>304</ele>
        <time>2013-12-15T10:51:19+01:00</time>
      </trkpt>
      <trkpt lat="43.86541" lon="3.82248">
        <ele>303</ele>
        <time>2013-12-15T10:51:38+01:00</time>
      </trkpt>
      <trkpt lat="43.86527" lon="3.82131">
        <ele>301</ele>
        <time>2013-12-15T10:53:01+01:00</time>
      </trkpt>
      <trkpt lat="43.86497" lon="3.82064">
        <ele>300</ele>
        <time>2013-12-15T10:53:50+01:00</time>
      </trkpt>
      <trkpt lat="43.8648" lon="3.82003">
        <ele>298</ele>
        <time>2013-12-15T10:54:33+01:00</time>
      </trkpt>
      <trkpt lat="43.86466" lon="3.8195">
        <ele>297</ele>
        <time>2013-12-15T10:55:04+01:00</time>
      </trkpt>
      <trkpt lat="43.86412" lon="3.81905">
        <ele>296</ele>
        <time>2013-12-15T10:55:56+01:00</time>
      </trkpt>
      <trkpt lat="43.86389" lon="3.81932">
        <ele>299</ele>
        <time>2013-12-15T10:56:41+01:00</time>
      </trkpt>
      <trkpt lat="43.86352" lon="3.8192">
        <ele>300</ele>
        <time>2013-12-15T10:57:13+01:00</time>
      </trkpt>
      <trkpt lat="43.86289" lon="3.81826">
        <ele>298</ele>
        <time>2013-12-15T10:58:15+01:00</time>
      </trkpt>
      <trkpt lat="43.86243" lon="3.81783">
        <ele>298</ele>
        <time>2013-12-15T10:59:20+01:00</time>
      </trkpt>
      <trkpt lat="43.86221" lon="3.81757">
        <ele>299</ele>
        <time>2013-12-15T10:59:35+01:00</time>
      </trkpt>
      <trkpt lat="43.86199" lon="3.8172">
        <ele>298</ele>
        <time>2013-12-15T11:00:15+01:00</time>
      </trkpt>
      <trkpt lat="43.86178" lon="3.81697">
        <ele>298</ele>
        <time>2013-12-15T11:00:31+01:00</time>
      </trkpt>
      <trkpt lat="43.86143" lon="3.81629">
        <ele>296</ele>
        <time>2013-12-15T11:01:24+01:00</time>
      </trkpt>
      <trkpt lat="43.86051" lon="3.81455">
        <ele>308</ele>
        <time>2013-12-15T11:03:32+01:00</time>
      </trkpt>
      <trkpt lat="43.86045" lon="3.81397">
        <ele>310</ele>
        <time>2013-12-15T11:04:28+01:00</time>
      </trkpt>
      <trkpt lat="43.86028" lon="3.81349">
        <ele>312</ele>
        <time>2013-12-15T11:04:42+01:00</time>
      </trkpt>
      <trkpt lat="43.86027" lon="3.81324">
        <ele>312</ele>
        <time>2013-12-15T11:05:12+01:00</time>
      </trkpt>
      <trkpt lat="43.86006" lon="3.81306">
        <ele>314</ele>
        <time>2013-12-15T11:05:34+01:00</time>
      </trkpt>
      <trkpt lat="43.86" lon="3.81282">
        <ele>315</ele>
        <time>2013-12-15T11:05:51+01:00</time>
      </trkpt>
      <trkpt lat="43.86011" lon="3.81254">
        <ele>314</ele>
        <time>2013-12-15T11:06:10+01:00</time>
      </trkpt>
      <trkpt lat="43.86006" lon="3.81236">
        <ele>315</ele>
        <time>2013-12-15T11:06:26+01:00</time>
      </trkpt>
      <trkpt lat="43.8598" lon="3.81196">
        <ele>316</ele>
        <time>2021-05-09T06:11:34+02:00</time>
      </trkpt>
      <trkpt lat="43.85948" lon="3.81153">
        <ele>317</ele>
        <time>2013-12-15T11:07:36+01:00</time>
      </trkpt>
      <trkpt lat="43.85934" lon="3.8114">
        <ele>318</ele>
        <time>2013-12-15T11:08:10+01:00</time>
      </trkpt>
      <trkpt lat="43.85927" lon="3.81131">
        <ele>318</ele>
        <time>2013-12-15T11:08:24+01:00</time>
      </trkpt>
      <trkpt lat="43.85908" lon="3.81128">
        <ele>318</ele>
        <time>2013-12-15T11:09:28+01:00</time>
      </trkpt>
      <trkpt lat="43.85903" lon="3.81111">
        <ele>318</ele>
        <time>2013-12-15T11:09:52+01:00</time>
      </trkpt>
      <trkpt lat="43.85908" lon="3.81086">
        <ele>317</ele>
        <time>2013-12-15T11:10:03+01:00</time>
      </trkpt>
      <trkpt lat="43.8593" lon="3.81047">
        <ele>313</ele>
        <time>2013-12-15T11:11:18+01:00</time>
      </trkpt>
      <trkpt lat="43.8594" lon="3.81003">
        <ele>309</ele>
        <time>2021-05-09T06:12:14+02:00</time>
      </trkpt>
      <trkpt lat="43.85938" lon="3.80985">
        <ele>308</ele>
        <time>2013-12-15T11:12:12+01:00</time>
      </trkpt>
      <trkpt lat="43.85944" lon="3.80966">
        <ele>307</ele>
        <time>2013-12-15T11:12:30+01:00</time>
      </trkpt>
      <trkpt lat="43.86012" lon="3.80894">
        <ele>303</ele>
        <time>2013-12-15T11:13:59+01:00</time>
      </trkpt>
      <trkpt lat="43.8603" lon="3.80883">
        <ele>303</ele>
        <time>2013-12-15T11:14:09+01:00</time>
      </trkpt>
      <trkpt lat="43.86033" lon="3.80837">
        <ele>302</ele>
        <time>2013-12-15T11:14:49+01:00</time>
      </trkpt>
      <trkpt lat="43.86025" lon="3.80787">
        <ele>303</ele>
        <time>2013-12-15T11:15:25+01:00</time>
      </trkpt>
      <trkpt lat="43.86027" lon="3.807">
        <ele>303</ele>
        <time>2013-12-15T11:16:23+01:00</time>
      </trkpt>
      <trkpt lat="43.86016" lon="3.80653">
        <ele>303</ele>
        <time>2013-12-15T11:17:11+01:00</time>
      </trkpt>
      <trkpt lat="43.86017" lon="3.8053">
        <ele>302</ele>
        <time>2021-05-09T06:12:59+02:00</time>
      </trkpt>
      <trkpt lat="43.86023" lon="3.80402">
        <ele>302</ele>
        <time>2013-12-15T11:20:01+01:00</time>
      </trkpt>
      <trkpt lat="43.86028" lon="3.80361">
        <ele>300</ele>
        <time>2021-05-09T06:13:09+02:00</time>
      </trkpt>
      <trkpt lat="43.86038" lon="3.80332">
        <ele>299</ele>
        <time>2013-12-15T11:20:51+01:00</time>
      </trkpt>
      <trkpt lat="43.86045" lon="3.80298">
        <ele>298</ele>
        <time>2013-12-15T11:21:09+01:00</time>
      </trkpt>
      <trkpt lat="43.86078" lon="3.8028">
        <ele>297</ele>
        <time>2013-12-15T11:21:42+01:00</time>
      </trkpt>
      <trkpt lat="43.86093" lon="3.80232">
        <ele>294</ele>
        <time>2013-12-15T11:22:18+01:00</time>
      </trkpt>
      <trkpt lat="43.86118" lon="3.80267">
        <ele>291</ele>
        <time>2013-12-15T11:23:12+01:00</time>
      </trkpt>
      <trkpt lat="43.86129" lon="3.80274">
        <ele>290</ele>
        <time>2021-05-09T06:13:39+02:00</time>
      </trkpt>
      <trkpt lat="43.86146" lon="3.80302">
        <ele>288</ele>
        <time>2013-12-15T11:23:43+01:00</time>
      </trkpt>
      <trkpt lat="43.86155" lon="3.80325">
        <ele>288</ele>
        <time>2013-12-15T11:24:02+01:00</time>
      </trkpt>
      <trkpt lat="43.86157" lon="3.80353">
        <ele>289</ele>
        <time>2013-12-15T11:24:21+01:00</time>
      </trkpt>
      <trkpt lat="43.86179" lon="3.80401">
        <ele>285</ele>
        <time>2013-12-15T11:24:57+01:00</time>
      </trkpt>
      <trkpt lat="43.8619" lon="3.80487">
        <ele>283</ele>
        <time>2013-12-15T11:26:00+01:00</time>
      </trkpt>
      <trkpt lat="43.86209" lon="3.8055">
        <ele>279</ele>
        <time>2013-12-15T11:27:02+01:00</time>
      </trkpt>
      <trkpt lat="43.86215" lon="3.80644">
        <ele>276</ele>
        <time>2013-12-15T11:27:34+01:00</time>
      </trkpt>
      <trkpt lat="43.86225" lon="3.80743">
        <ele>275</ele>
        <time>2021-05-09T06:14:19+02:00</time>
      </trkpt>
      <trkpt lat="43.86228" lon="3.80839">
        <ele>276</ele>
        <time>2013-12-15T11:33:02+01:00</time>
      </trkpt>
      <trkpt lat="43.8624" lon="3.8082">
        <ele>273</ele>
        <time>2013-12-15T11:33:32+01:00</time>
      </trkpt>
      <trkpt lat="43.86249" lon="3.80785">
        <ele>270</ele>
        <time>2013-12-15T11:34:01+01:00</time>
      </trkpt>
      <trkpt lat="43.86255" lon="3.80761">
        <ele>270</ele>
        <time>2013-12-15T11:34:37+01:00</time>
      </trkpt>
      <trkpt lat="43.86264" lon="3.80743">
        <ele>272</ele>
        <time>2013-12-15T11:52:38+01:00</time>
      </trkpt>
      <trkpt lat="43.86267" lon="3.8071">
        <ele>271</ele>
        <time>2013-12-15T11:55:20+01:00</time>
      </trkpt>
      <trkpt lat="43.86285" lon="3.80624">
        <ele>271</ele>
        <time>2013-12-15T11:56:45+01:00</time>
      </trkpt>
      <trkpt lat="43.86288" lon="3.80559">
        <ele>270</ele>
        <time>2013-12-15T11:57:43+01:00</time>
      </trkpt>
      <trkpt lat="43.86298" lon="3.80525">
        <ele>270</ele>
        <time>2013-12-15T11:58:26+01:00</time>
      </trkpt>
      <trkpt lat="43.86301" lon="3.80499">
        <ele>270</ele>
        <time>2013-12-15T11:59:09+01:00</time>
      </trkpt>
      <trkpt lat="43.86299" lon="3.80461">
        <ele>270</ele>
        <time>2013-12-15T12:00:30+01:00</time>
      </trkpt>
      <trkpt lat="43.86281" lon="3.80431">
        <ele>267</ele>
        <time>2013-12-15T12:02:28+01:00</time>
      </trkpt>
      <trkpt lat="43.86278" lon="3.80418">
        <ele>267</ele>
        <time>2013-12-15T12:02:38+01:00</time>
      </trkpt>
      <trkpt lat="43.86272" lon="3.80336">
        <ele>264</ele>
        <time>2021-05-09T06:15:29+02:00</time>
      </trkpt>
      <trkpt lat="43.86277" lon="3.80197">
        <ele>260</ele>
        <time>2013-12-15T12:06:18+01:00</time>
      </trkpt>
      <trkpt lat="43.86264" lon="3.80172">
        <ele>255</ele>
        <time>2013-12-15T12:07:39+01:00</time>
      </trkpt>
      <trkpt lat="43.86257" lon="3.80143">
        <ele>251</ele>
        <time>2013-12-15T12:07:46+01:00</time>
      </trkpt>
      <trkpt lat="43.86259" lon="3.80071">
        <ele>250</ele>
        <time>2013-12-15T12:08:39+01:00</time>
      </trkpt>
      <trkpt lat="43.86254" lon="3.80008">
        <ele>248</ele>
        <time>2013-12-15T12:10:50+01:00</time>
      </trkpt>
      <trkpt lat="43.86224" lon="3.7987">
        <ele>248</ele>
        <time>2013-12-15T12:12:45+01:00</time>
      </trkpt>
      <trkpt lat="43.86215" lon="3.79857">
        <ele>248</ele>
        <time>2013-12-15T12:12:54+01:00</time>
      </trkpt>
      <trkpt lat="43.86223" lon="3.79776">
        <ele>242</ele>
        <time>2021-05-09T06:16:09+02:00</time>
      </trkpt>
      <trkpt lat="43.86234" lon="3.79736">
        <ele>239</ele>
        <time>2013-12-15T13:18:39+01:00</time>
      </trkpt>
      <trkpt lat="43.86276" lon="3.79681">
        <ele>238</ele>
        <time>2013-12-15T13:18:59+01:00</time>
      </trkpt>
      <trkpt lat="43.86294" lon="3.79648">
        <ele>238</ele>
        <time>2013-12-15T13:20:01+01:00</time>
      </trkpt>
      <trkpt lat="43.86318" lon="3.7951">
        <ele>232</ele>
        <time>2021-05-09T06:16:29+02:00</time>
      </trkpt>
      <trkpt lat="43.8633" lon="3.7942">
        <ele>231</ele>
        <time>2013-12-15T13:22:45+01:00</time>
      </trkpt>
      <trkpt lat="43.86351" lon="3.79315">
        <ele>231</ele>
        <time>2013-12-15T13:23:42+01:00</time>
      </trkpt>
      <trkpt lat="43.8637" lon="3.79247">
        <ele>232</ele>
        <time>2013-12-15T13:24:43+01:00</time>
      </trkpt>
      <trkpt lat="43.8639" lon="3.79252">
        <ele>233</ele>
        <time>2013-12-15T13:24:52+01:00</time>
      </trkpt>
      <trkpt lat="43.86404" lon="3.79262">
        <ele>234</ele>
        <time>2013-12-15T13:25:12+01:00</time>
      </trkpt>
      <trkpt lat="43.86429" lon="3.79254">
        <ele>234</ele>
        <time>2013-12-15T13:25:41+01:00</time>
      </trkpt>
      <trkpt lat="43.86455" lon="3.79262">
        <ele>235</ele>
        <time>2013-12-15T13:26:08+01:00</time>
      </trkpt>
      <trkpt lat="43.8648" lon="3.79237">
        <ele>235</ele>
        <time>2021-05-09T06:17:09+02:00</time>
      </trkpt>
      <trkpt lat="43.86496" lon="3.79232">
        <ele>235</ele>
        <time>2021-05-09T06:17:14+02:00</time>
      </trkpt>
      <trkpt lat="43.865" lon="3.79217">
        <ele>235</ele>
        <time>2013-12-15T13:27:01+01:00</time>
      </trkpt>
      <trkpt lat="43.86549" lon="3.7921">
        <ele>240</ele>
        <time>2013-12-15T13:27:44+01:00</time>
      </trkpt>
      <trkpt lat="43.86554" lon="3.79191">
        <ele>240</ele>
        <time>2013-12-15T13:28:12+01:00</time>
      </trkpt>
      <trkpt lat="43.86552" lon="3.79023">
        <ele>242</ele>
        <time>2013-12-15T13:29:56+01:00</time>
      </trkpt>
      <trkpt lat="43.86576" lon="3.79001">
        <ele>245</ele>
        <time>2013-12-15T13:30:25+01:00</time>
      </trkpt>
      <trkpt lat="43.86597" lon="3.78995">
        <ele>247</ele>
        <time>2013-12-15T13:30:35+01:00</time>
      </trkpt>
      <trkpt lat="43.86618" lon="3.78978">
        <ele>249</ele>
        <time>2013-12-15T13:31:02+01:00</time>
      </trkpt>
      <trkpt lat="43.86677" lon="3.78963">
        <ele>253</ele>
        <time>2013-12-15T13:31:54+01:00</time>
      </trkpt>
      <trkpt lat="43.86702" lon="3.78943">
        <ele>253</ele>
        <time>2013-12-15T13:32:25+01:00</time>
      </trkpt>
      <trkpt lat="43.86728" lon="3.78943">
        <ele>255</ele>
        <time>2013-12-15T13:32:49+01:00</time>
      </trkpt>
      <trkpt lat="43.86757" lon="3.78938">
        <ele>256</ele>
        <time>2021-05-09T06:18:09+02:00</time>
      </trkpt>
      <trkpt lat="43.86807" lon="3.78947">
        <ele>255</ele>
        <time>2021-05-09T06:18:14+02:00</time>
      </trkpt>
      <trkpt lat="43.86861" lon="3.78976">
        <ele>256</ele>
        <time>2021-05-09T06:18:19+02:00</time>
      </trkpt>
      <trkpt lat="43.86921" lon="3.78994">
        <ele>255</ele>
        <time>2013-12-15T13:35:11+01:00</time>
      </trkpt>
      <trkpt lat="43.86945" lon="3.79004">
        <ele>256</ele>
        <time>2021-05-09T06:18:29+02:00</time>
      </trkpt>
      <trkpt lat="43.87009" lon="3.7898">
        <ele>257</ele>
        <time>2013-12-15T13:37:33+01:00</time>
      </trkpt>
      <trkpt lat="43.87085" lon="3.78986">
        <ele>260</ele>
        <time>2013-12-15T13:38:36+01:00</time>
      </trkpt>
      <trkpt lat="43.87131" lon="3.79018">
        <ele>262</ele>
        <time>2021-05-09T06:18:44+02:00</time>
      </trkpt>
      <trkpt lat="43.87169" lon="3.79059">
        <ele>266</ele>
        <time>2021-05-09T06:18:49+02:00</time>
      </trkpt>
      <trkpt lat="43.87254" lon="3.79139">
        <ele>270</ele>
        <time>2013-12-15T13:41:32+01:00</time>
      </trkpt>
      <trkpt lat="43.87275" lon="3.79153">
        <ele>271</ele>
        <time>2013-12-15T13:42:07+01:00</time>
      </trkpt>
      <trkpt lat="43.87293" lon="3.79184">
        <ele>274</ele>
        <time>2013-12-15T13:43:15+01:00</time>
      </trkpt>
      <trkpt lat="43.87365" lon="3.79245">
        <ele>277</ele>
        <time>2013-12-15T13:44:50+01:00</time>
      </trkpt>
      <trkpt lat="43.87437" lon="3.79286">
        <ele>280</ele>
        <time>2021-05-09T06:19:14+02:00</time>
      </trkpt>
      <trkpt lat="43.87465" lon="3.79317">
        <ele>282</ele>
        <time>2013-12-15T13:46:27+01:00</time>
      </trkpt>
      <trkpt lat="43.87489" lon="3.79367">
        <ele>283</ele>
        <time>2021-05-09T06:19:24+02:00</time>
      </trkpt>
      <trkpt lat="43.87504" lon="3.79432">
        <ele>284</ele>
        <time>2021-05-09T06:19:29+02:00</time>
      </trkpt>
      <trkpt lat="43.87522" lon="3.79462">
        <ele>284</ele>
        <time>2021-05-09T06:19:34+02:00</time>
      </trkpt>
      <trkpt lat="43.87535" lon="3.79568">
        <ele>291</ele>
        <time>2013-12-15T13:49:14+01:00</time>
      </trkpt>
      <trkpt lat="43.87541" lon="3.7952">
        <ele>287</ele>
        <time>2013-12-15T13:49:05+01:00</time>
      </trkpt>
      <trkpt lat="43.87533" lon="3.79603">
        <ele>293</ele>
        <time>2013-12-15T13:50:08+01:00</time>
      </trkpt>
      <trkpt lat="43.87541" lon="3.79611">
        <ele>293</ele>
        <time>2013-12-15T13:50:48+01:00</time>
      </trkpt>
      <trkpt lat="43.87577" lon="3.79588">
        <ele>291</ele>
        <time>2021-05-09T06:19:59+02:00</time>
      </trkpt>
      <trkpt lat="43.87619" lon="3.79595">
        <ele>296</ele>
        <time>2013-12-15T13:52:04+01:00</time>
      </trkpt>
      <trkpt lat="43.87642" lon="3.7959">
        <ele>299</ele>
        <time>2021-05-09T06:20:09+02:00</time>
      </trkpt>
      <trkpt lat="43.87649" lon="3.79604">
        <ele>302</ele>
        <time>2013-12-15T13:53:25+01:00</time>
      </trkpt>
      <trkpt lat="43.87642" lon="3.79624">
        <ele>303</ele>
        <time>2013-12-15T13:53:48+01:00</time>
      </trkpt>
      <trkpt lat="43.87664" lon="3.79618">
        <ele>306</ele>
        <time>2013-12-15T13:54:23+01:00</time>
      </trkpt>
      <trkpt lat="43.87692" lon="3.79625">
        <ele>308</ele>
        <time>2013-12-15T13:55:14+01:00</time>
      </trkpt>
      <trkpt lat="43.87722" lon="3.79645">
        <ele>313</ele>
        <time>2013-12-15T13:56:10+01:00</time>
      </trkpt>
      <trkpt lat="43.87716" lon="3.7969">
        <ele>316</ele>
        <time>2013-12-15T13:57:02+01:00</time>
      </trkpt>
      <trkpt lat="43.87727" lon="3.79693">
        <ele>317</ele>
        <time>2013-12-15T13:57:21+01:00</time>
      </trkpt>
      <trkpt lat="43.87767" lon="3.79748">
        <ele>319</ele>
        <time>2013-12-15T13:58:50+01:00</time>
      </trkpt>
      <trkpt lat="43.87775" lon="3.79777">
        <ele>318</ele>
        <time>2013-12-15T13:59:29+01:00</time>
      </trkpt>
      <trkpt lat="43.87775" lon="3.79825">
        <ele>316</ele>
        <time>2013-12-15T13:59:40+01:00</time>
      </trkpt>
      <trkpt lat="43.8775" lon="3.79841">
        <ele>316</ele>
        <time>2013-12-15T14:10:59+01:00</time>
      </trkpt>
      <trkpt lat="43.8773" lon="3.79871">
        <ele>315</ele>
        <time>2013-12-15T14:11:23+01:00</time>
      </trkpt>
      <trkpt lat="43.87725" lon="3.79888">
        <ele>316</ele>
        <time>2013-12-15T14:11:39+01:00</time>
      </trkpt>
      <trkpt lat="43.87681" lon="3.79957">
        <ele>317</ele>
        <time>2013-12-15T14:14:18+01:00</time>
      </trkpt>
      <trkpt lat="43.87711" lon="3.79957">
        <ele>318</ele>
        <time>2013-12-15T14:14:35+01:00</time>
      </trkpt>
      <trkpt lat="43.87754" lon="3.79958">
        <ele>319</ele>
        <time>2013-12-15T14:15:11+01:00</time>
      </trkpt>
      <trkpt lat="43.87753" lon="3.79976">
        <ele>319</ele>
        <time>2013-12-15T14:15:20+01:00</time>
      </trkpt>
      <trkpt lat="43.87777" lon="3.80061">
        <ele>316</ele>
        <time>2013-12-15T14:16:25+01:00</time>
      </trkpt>
      <trkpt lat="43.87743" lon="3.802">
        <ele>319</ele>
        <time>2013-12-15T14:18:05+01:00</time>
      </trkpt>
      <trkpt lat="43.87661" lon="3.80277">
        <ele>317</ele>
        <time>2013-12-15T14:19:47+01:00</time>
      </trkpt>
      <trkpt lat="43.87548" lon="3.80327">
        <ele>314</ele>
        <time>2013-12-15T14:23:33+01:00</time>
      </trkpt>
      <trkpt lat="43.87491" lon="3.80355">
        <ele>312</ele>
        <time>2013-12-15T14:24:40+01:00</time>
      </trkpt>
      <trkpt lat="43.87461" lon="3.80382">
        <ele>312</ele>
        <time>2013-12-15T14:24:58+01:00</time>
      </trkpt>
      <trkpt lat="43.87461" lon="3.80421">
        <ele>312</ele>
        <time>2013-12-15T14:25:14+01:00</time>
      </trkpt>
      <trkpt lat="43.87475" lon="3.80531">
        <ele>315</ele>
        <time>2013-12-15T14:26:53+01:00</time>
      </trkpt>
      <trkpt lat="43.87445" lon="3.80632">
        <ele>317</ele>
        <time>2013-12-15T14:28:09+01:00</time>
      </trkpt>
      <trkpt lat="43.87429" lon="3.8063">
        <ele>316</ele>
        <time>2013-12-15T14:28:27+01:00</time>
      </trkpt>
      <trkpt lat="43.87398" lon="3.80602">
        <ele>315</ele>
        <time>2013-12-15T14:29:01+01:00</time>
      </trkpt>
      <trkpt lat="43.87374" lon="3.80602">
        <ele>316</ele>
        <time>2013-12-15T14:29:25+01:00</time>
      </trkpt>
      <trkpt lat="43.87361" lon="3.80594">
        <ele>316</ele>
        <time>2013-12-15T14:29:34+01:00</time>
      </trkpt>
      <trkpt lat="43.8733" lon="3.80586">
        <ele>316</ele>
        <time>2013-12-15T14:30:17+01:00</time>
      </trkpt>
      <trkpt lat="43.87306" lon="3.80553">
        <ele>314</ele>
        <time>2013-12-15T14:30:27+01:00</time>
      </trkpt>
      <trkpt lat="43.87266" lon="3.80545">
        <ele>314</ele>
        <time>2013-12-15T14:31:10+01:00</time>
      </trkpt>
      <trkpt lat="43.87243" lon="3.80522">
        <ele>313</ele>
        <time>2013-12-15T14:31:42+01:00</time>
      </trkpt>
      <trkpt lat="43.87201" lon="3.80505">
        <ele>312</ele>
        <time>2013-12-15T14:32:18+01:00</time>
      </trkpt>
      <trkpt lat="43.87193" lon="3.80482">
        <ele>311</ele>
        <time>2013-12-15T14:32:35+01:00</time>
      </trkpt>
      <trkpt lat="43.87132" lon="3.80445">
        <ele>310</ele>
        <time>2013-12-15T14:34:59+01:00</time>
      </trkpt>
      <trkpt lat="43.87116" lon="3.8041">
        <ele>309</ele>
        <time>2013-12-15T14:35:31+01:00</time>
      </trkpt>
      <trkpt lat="43.87018" lon="3.80373">
        <ele>305</ele>
        <time>2013-12-15T14:36:55+01:00</time>
      </trkpt>
      <trkpt lat="43.87004" lon="3.80374">
        <ele>305</ele>
        <time>2013-12-15T14:37:23+01:00</time>
      </trkpt>
      <trkpt lat="43.86992" lon="3.80383">
        <ele>305</ele>
        <time>2013-12-15T14:37:32+01:00</time>
      </trkpt>
      <trkpt lat="43.8695" lon="3.80454">
        <ele>304</ele>
        <time>2013-12-15T14:38:20+01:00</time>
      </trkpt>
      <trkpt lat="43.86909" lon="3.80517">
        <ele>304</ele>
        <time>2021-05-09T06:23:44+02:00</time>
      </trkpt>
      <trkpt lat="43.86886" lon="3.80533">
        <ele>305</ele>
        <time>2021-05-09T06:23:49+02:00</time>
      </trkpt>
      <trkpt lat="43.8684" lon="3.80531">
        <ele>305</ele>
        <time>2013-12-15T14:40:55+01:00</time>
      </trkpt>
      <trkpt lat="43.86804" lon="3.80526">
        <ele>305</ele>
        <time>2013-12-15T14:41:24+01:00</time>
      </trkpt>
      <trkpt lat="43.86771" lon="3.80504">
        <ele>305</ele>
        <time>2013-12-15T14:41:59+01:00</time>
      </trkpt>
      <trkpt lat="43.86755" lon="3.80503">
        <ele>305</ele>
        <time>2013-12-15T14:42:08+01:00</time>
      </trkpt>
      <trkpt lat="43.86669" lon="3.80553">
        <ele>304</ele>
        <time>2013-12-15T14:43:47+01:00</time>
      </trkpt>
      <trkpt lat="43.86641" lon="3.80586">
        <ele>305</ele>
        <time>2013-12-15T14:44:25+01:00</time>
      </trkpt>
      <trkpt lat="43.86607" lon="3.80598">
        <ele>306</ele>
        <time>2013-12-15T14:45:01+01:00</time>
      </trkpt>
      <trkpt lat="43.86574" lon="3.80598">
        <ele>307</ele>
        <time>2013-12-15T14:45:10+01:00</time>
      </trkpt>
      <trkpt lat="43.86514" lon="3.80552">
        <ele>303</ele>
        <time>2013-12-15T14:45:26+01:00</time>
      </trkpt>
      <trkpt lat="43.86503" lon="3.80518">
        <ele>301</ele>
        <time>2013-12-15T14:46:44+01:00</time>
      </trkpt>
      <trkpt lat="43.86472" lon="3.80483">
        <ele>298</ele>
        <time>2013-12-15T14:47:15+01:00</time>
      </trkpt>
      <trkpt lat="43.86437" lon="3.80362">
        <ele>298</ele>
        <time>2013-12-15T14:47:58+01:00</time>
      </trkpt>
      <trkpt lat="43.86432" lon="3.80323">
        <ele>298</ele>
        <time>2021-05-09T06:24:54+02:00</time>
      </trkpt>
      <trkpt lat="43.86401" lon="3.80204">
        <ele>293</ele>
        <time>2013-12-15T14:50:51+01:00</time>
      </trkpt>
      <trkpt lat="43.8637" lon="3.80257">
        <ele>287</ele>
        <time>2013-12-15T14:52:05+01:00</time>
      </trkpt>
      <trkpt lat="43.86363" lon="3.80308">
        <ele>284</ele>
        <time>2013-12-15T14:52:16+01:00</time>
      </trkpt>
      <trkpt lat="43.86372" lon="3.80543">
        <ele>282</ele>
        <time>2013-12-15T14:55:31+01:00</time>
      </trkpt>
      <trkpt lat="43.86365" lon="3.80566">
        <ele>280</ele>
        <time>2013-12-15T14:55:40+01:00</time>
      </trkpt>
      <trkpt lat="43.86332" lon="3.80624">
        <ele>276</ele>
        <time>2021-05-09T06:25:24+02:00</time>
      </trkpt>
      <trkpt lat="43.8626" lon="3.80851">
        <ele>274</ele>
        <time>2013-12-15T14:59:27+01:00</time>
      </trkpt>
      <trkpt lat="43.86251" lon="3.80906">
        <ele>275</ele>
        <time>2013-12-15T14:59:51+01:00</time>
      </trkpt>
      <trkpt lat="43.86269" lon="3.80982">
        <ele>279</ele>
        <time>2013-12-15T15:03:57+01:00</time>
      </trkpt>
      <trkpt lat="43.86265" lon="3.81015">
        <ele>278</ele>
        <time>2013-12-15T15:04:13+01:00</time>
      </trkpt>
      <trkpt lat="43.86248" lon="3.81062">
        <ele>276</ele>
        <time>2013-12-15T15:06:14+01:00</time>
      </trkpt>
      <trkpt lat="43.86259" lon="3.81087">
        <ele>276</ele>
        <time>2013-12-15T15:06:23+01:00</time>
      </trkpt>
      <trkpt lat="43.86273" lon="3.81111">
        <ele>277</ele>
        <time>2013-12-15T15:07:39+01:00</time>
      </trkpt>
      <trkpt lat="43.86278" lon="3.81136">
        <ele>277</ele>
        <time>2013-12-15T15:08:01+01:00</time>
      </trkpt>
      <trkpt lat="43.86288" lon="3.81158">
        <ele>276</ele>
        <time>2013-12-15T15:08:48+01:00</time>
      </trkpt>
      <trkpt lat="43.86307" lon="3.81231">
        <ele>278</ele>
        <time>2013-12-15T15:09:59+01:00</time>
      </trkpt>
      <trkpt lat="43.86309" lon="3.81272">
        <ele>279</ele>
        <time>2013-12-15T15:10:57+01:00</time>
      </trkpt>
      <trkpt lat="43.86278" lon="3.81335">
        <ele>280</ele>
        <time>2021-05-09T06:26:24+02:00</time>
      </trkpt>
      <trkpt lat="43.86252" lon="3.81383">
        <ele>281</ele>
        <time>2013-12-15T15:12:17+01:00</time>
      </trkpt>
      <trkpt lat="43.86259" lon="3.81418">
        <ele>283</ele>
        <time>2013-12-15T15:12:47+01:00</time>
      </trkpt>
      <trkpt lat="43.86258" lon="3.81454">
        <ele>283</ele>
        <time>2013-12-15T15:13:10+01:00</time>
      </trkpt>
      <trkpt lat="43.86259" lon="3.81507">
        <ele>282</ele>
        <time>2021-05-09T06:26:44+02:00</time>
      </trkpt>
      <trkpt lat="43.86245" lon="3.81547">
        <ele>282</ele>
        <time>2013-12-15T15:14:55+01:00</time>
      </trkpt>
      <trkpt lat="43.86246" lon="3.81559">
        <ele>282</ele>
        <time>2013-12-15T15:15:19+01:00</time>
      </trkpt>
      <trkpt lat="43.86261" lon="3.81575">
        <ele>282</ele>
        <time>2013-12-15T15:15:38+01:00</time>
      </trkpt>
      <trkpt lat="43.86269" lon="3.81583">
        <ele>282</ele>
        <time>2013-12-15T15:15:47+01:00</time>
      </trkpt>
      <trkpt lat="43.86278" lon="3.8158">
        <ele>282</ele>
        <time>2013-12-15T15:15:56+01:00</time>
      </trkpt>
      <trkpt lat="43.8631" lon="3.81607">
        <ele>283</ele>
        <time>2013-12-15T15:17:19+01:00</time>
      </trkpt>
      <trkpt lat="43.86324" lon="3.81624">
        <ele>283</ele>
        <time>2013-12-15T15:17:36+01:00</time>
      </trkpt>
      <trkpt lat="43.86335" lon="3.81644">
        <ele>284</ele>
        <time>2013-12-15T15:17:53+01:00</time>
      </trkpt>
      <trkpt lat="43.86344" lon="3.81667">
        <ele>285</ele>
        <time>2013-12-15T15:18:15+01:00</time>
      </trkpt>
      <trkpt lat="43.86359" lon="3.81679">
        <ele>285</ele>
        <time>2013-12-15T15:18:35+01:00</time>
      </trkpt>
      <trkpt lat="43.86401" lon="3.81734">
        <ele>286</ele>
        <time>2013-12-15T15:19:38+01:00</time>
      </trkpt>
      <trkpt lat="43.86425" lon="3.81757">
        <ele>287</ele>
        <time>2013-12-15T15:20:12+01:00</time>
      </trkpt>
      <trkpt lat="43.86455" lon="3.81789">
        <ele>289</ele>
        <time>2013-12-15T15:20:53+01:00</time>
      </trkpt>
      <trkpt lat="43.8648" lon="3.81806">
        <ele>290</ele>
        <time>2013-12-15T15:21:29+01:00</time>
      </trkpt>
      <trkpt lat="43.86494" lon="3.81825">
        <ele>291</ele>
        <time>2013-12-15T15:21:52+01:00</time>
      </trkpt>
      <trkpt lat="43.86509" lon="3.81841">
        <ele>292</ele>
        <time>2013-12-15T15:22:12+01:00</time>
      </trkpt>
      <trkpt lat="43.86526" lon="3.81854">
        <ele>292</ele>
        <time>2013-12-15T15:22:35+01:00</time>
      </trkpt>
      <trkpt lat="43.86543" lon="3.81867">
        <ele>293</ele>
        <time>2013-12-15T15:22:56+01:00</time>
      </trkpt>
      <trkpt lat="43.86569" lon="3.8188">
        <ele>294</ele>
        <time>2013-12-15T15:24:42+01:00</time>
      </trkpt>
      <trkpt lat="43.86588" lon="3.81882">
        <ele>294</ele>
        <time>2013-12-15T15:24:59+01:00</time>
      </trkpt>
      <trkpt lat="43.86605" lon="3.81893">
        <ele>294</ele>
        <time>2013-12-15T15:25:17+01:00</time>
      </trkpt>
      <trkpt lat="43.86631" lon="3.81909">
        <ele>295</ele>
        <time>2013-12-15T15:25:45+01:00</time>
      </trkpt>
      <trkpt lat="43.86645" lon="3.81928">
        <ele>295</ele>
        <time>2013-12-15T15:26:04+01:00</time>
      </trkpt>
      <trkpt lat="43.8665" lon="3.81944">
        <ele>295</ele>
        <time>2013-12-15T15:26:33+01:00</time>
      </trkpt>
      <trkpt lat="43.86673" lon="3.81971">
        <ele>296</ele>
        <time>2013-12-15T15:27:00+01:00</time>
      </trkpt>
      <trkpt lat="43.86689" lon="3.81982">
        <ele>296</ele>
        <time>2013-12-15T15:27:29+01:00</time>
      </trkpt>
      <trkpt lat="43.86712" lon="3.81998">
        <ele>296</ele>
        <time>2013-12-15T15:27:48+01:00</time>
      </trkpt>
      <trkpt lat="43.86717" lon="3.82016">
        <ele>297</ele>
        <time>2013-12-15T15:28:23+01:00</time>
      </trkpt>
      <trkpt lat="43.86727" lon="3.8203">
        <ele>297</ele>
        <time>2013-12-15T15:28:43+01:00</time>
      </trkpt>
      <trkpt lat="43.86756" lon="3.82065">
        <ele>298</ele>
        <time>2021-05-09T06:29:14+02:00</time>
      </trkpt>
      <trkpt lat="43.86777" lon="3.82092">
        <ele>299</ele>
        <time>2013-12-15T15:29:50+01:00</time>
      </trkpt>
      <trkpt lat="43.86799" lon="3.82133">
        <ele>299</ele>
        <time>2013-12-15T15:30:56+01:00</time>
      </trkpt>
      <trkpt lat="43.86796" lon="3.82155">
        <ele>300</ele>
        <time>2021-05-09T06:29:29+02:00</time>
      </trkpt>
      <trkpt lat="43.86784" lon="3.82187">
        <ele>301</ele>
        <time>2013-12-15T15:31:50+01:00</time>
      </trkpt>
      <trkpt lat="43.86764" lon="3.82219">
        <ele>302</ele>
        <time>2013-12-15T15:32:10+01:00</time>
      </trkpt>
      <trkpt lat="43.8667" lon="3.82294">
        <ele>305</ele>
        <time>2013-12-15T15:33:58+01:00</time>
      </trkpt>
      <trkpt lat="43.86663" lon="3.82291">
        <ele>304</ele>
        <time>2013-12-15T15:34:13+01:00</time>
      </trkpt>
      <trkpt lat="43.86595" lon="3.82307">
        <ele>305</ele>
        <time>2013-12-15T15:35:11+01:00</time>
      </trkpt>
      <trkpt lat="43.86575" lon="3.82298">
        <ele>305</ele>
        <time>2013-12-15T15:35:19+01:00</time>
      </trkpt>
      <trkpt lat="43.86451" lon="3.82334">
        <ele>306</ele>
        <time>2013-12-15T15:38:06+01:00</time>
      </trkpt>
      <trkpt lat="43.86432" lon="3.82335">
        <ele>307</ele>
        <time>2013-12-15T15:38:25+01:00</time>
      </trkpt>
      <trkpt lat="43.86394" lon="3.82328">
        <ele>308</ele>
        <time>2013-12-15T15:39:06+01:00</time>
      </trkpt>
      <trkpt lat="43.86386" lon="3.82321">
        <ele>308</ele>
        <time>2013-12-15T15:39:15+01:00</time>
      </trkpt>
      <trkpt lat="43.86382" lon="3.82309">
        <ele>308</ele>
        <time>2013-12-15T15:39:24+01:00</time>
      </trkpt>
      <trkpt lat="43.8638" lon="3.82296">
        <ele>309</ele>
        <time>2013-12-15T15:39:34+01:00</time>
      </trkpt>
      <trkpt lat="43.86372" lon="3.82216">
        <ele>309</ele>
        <time>2013-12-15T15:40:10+01:00</time>
      </trkpt>
    </trkseg>
  </trk>
</gpx>